Sault Ste Marie Airport
CYAM : now visible

Airfield :











YOU CAN JOIN US ON...

 
LOGIN :

Register | Disclaimer

   EN    FR    IT 

 









Legend :    VFR   Marginal VFR   IFR   Intensive IFR   Very Intensive IFR
Visi :
Ceiling :
>= 8 km
>= 3000ft
5 to 8 km
1000 to 3000 ft
1500m to 5 km
500 to 1000 ft
800 to 1500m
200 to 500 ft
< 800m
< 200 ft
Symbols :   Thunderstorms  Fog  Heavy snow  Heavy precipitations  Wind > 20 kt






- Airport Elevation : 630 ft
- IATA code : YAM


CYAM - Sault Ste Marie

CURRENT METAR :
  • 181100Z 09013G20KT 3SM -SN DRSN SCT009 OVC012 M08/M10 A3010 RMK NS3NS5 VIS VRB 2 - 4 PRESFR SLP209

EXPIRED METARs :
  • 181000Z 10012G23KT 15SM -SN DRSN SCT009 OVC012 M08/M10 A3017 RMK NS4NS4 SLP232
  • 180900Z 10014G24KT 15SM -SN DRSN SCT009 OVC010 M08/M11 A3023 RMK NS4NS4 PRESFR SLP253

TAF TAF CYAM
Valid from the 18 at 08:00 until the 18 at 20:00 UTC


180738Z 1808/1820 09012G22KT P6SM OVC015
TEMPO 1808/1809 4SM -SN BKN008 OVC012
FM180900 09012G22KT 6SM -SN OVC012
TEMPO 1809/1812 11/2SM -SN
FM181200 09015G25KT 11/2SM -SN OVC012
FM181400 09015G25KT 1/2SM SN BLSN OVC005
FM181900 09015G25KT 11/2SM -SN BLSN OVC012 RMK NXT FCST BY 181400Z



MET'MAP, your aeronautical weather chart ! - Copyright ORBIFLY December 2007 - Disclaimer

ORBIFLY MET'MAP TEAM :

Programming & Development : Alexandra Zaïnal
Concept & original design : Baudouin d'Aumeries
Assistance for programming : Marc-Olivier Méhu
Technical & hardware support : Manuel Goepfert

Contact : metmap@orbifly.com




SOURCES & CREDITS :

   NOAA       Earth
Advisory